createdAt,value
2024-02-14T00:01:11.723Z,2.28
2024-02-14T00:03:39.733Z,1.92
2024-02-14T00:06:07.469Z,3.63
2024-02-14T00:08:34.857Z,3.05
2024-02-14T00:11:02.357Z,3.65
2024-02-14T00:13:29.640Z,3.00
2024-02-14T00:15:57.941Z,2.15
2024-02-14T00:18:25.449Z,4.28
2024-02-14T00:20:52.499Z,4.15
2024-02-14T00:23:20.167Z,5.18
2024-02-14T00:25:46.962Z,2.08
2024-02-14T00:28:13.754Z,3.28
2024-02-14T00:30:40.863Z,2.67
2024-02-14T00:33:08.120Z,5.85
2024-02-14T00:35:35.504Z,1.67
2024-02-14T00:38:02.770Z,3.90
2024-02-14T00:40:30.090Z,5.13
2024-02-14T00:42:56.989Z,2.20
2024-02-14T00:45:24.111Z,3.92
2024-02-14T00:47:51.337Z,1.60
2024-02-14T00:50:18.558Z,2.05
2024-02-14T00:52:45.402Z,2.97
2024-02-14T00:55:13.142Z,3.13
2024-02-14T00:57:39.981Z,2.65
2024-02-14T01:00:08.925Z,3.88
2024-02-14T01:02:36.024Z,2.70
2024-02-14T01:05:03.534Z,3.72
2024-02-14T01:07:30.691Z,1.90
2024-02-14T01:09:57.645Z,3.53
2024-02-14T01:12:24.463Z,4.25
2024-02-14T01:14:51.665Z,1.85
2024-02-14T01:17:18.648Z,4.47
2024-02-14T01:19:45.725Z,2.03
2024-02-14T01:22:12.769Z,3.67
2024-02-14T01:24:40.487Z,4.03
2024-02-14T01:27:08.131Z,4.78
2024-02-14T01:29:35.424Z,3.90
2024-02-14T01:32:02.386Z,2.60
2024-02-14T01:34:32.918Z,6.65
2024-02-14T01:36:59.802Z,4.85
2024-02-14T01:39:26.841Z,3.33
2024-02-14T01:41:53.663Z,5.85
2024-02-14T01:44:22.292Z,3.58
2024-02-14T01:46:49.214Z,5.50
2024-02-14T01:49:17.862Z,5.82
2024-02-14T01:51:47.869Z,5.82
2024-02-14T01:54:15.893Z,3.10
2024-02-14T01:56:43.348Z,6.75
2024-02-14T01:59:10.848Z,2.45
2024-02-14T02:01:38.052Z,4.32
2024-02-14T02:04:05.974Z,5.65
2024-02-14T02:06:34.032Z,4.90
2024-02-14T02:09:02.060Z,3.60
2024-02-14T02:11:29.137Z,4.05
2024-02-14T02:13:56.734Z,2.92
2024-02-14T02:16:23.863Z,5.78
2024-02-14T02:18:51.426Z,4.55
2024-02-14T02:21:21.144Z,5.13
2024-02-14T02:23:48.959Z,4.80
2024-02-14T02:26:15.996Z,3.45
2024-02-14T02:28:44.218Z,7.55
2024-02-14T02:31:11.687Z,4.78
2024-02-14T02:33:38.795Z,4.40
2024-02-14T02:36:08.045Z,5.43
2024-02-14T02:38:35.143Z,3.85
2024-02-14T02:41:02.511Z,6.15
2024-02-14T02:43:30.049Z,4.68
2024-02-14T02:45:58.435Z,4.07
2024-02-14T02:48:25.619Z,7.15
2024-02-14T02:50:53.300Z,4.05
2024-02-14T02:53:21.160Z,2.45
2024-02-14T02:55:48.128Z,7.97
2024-02-14T02:58:16.151Z,4.68
2024-02-14T03:00:43.265Z,5.15
2024-02-14T03:03:10.530Z,4.60
2024-02-14T03:05:38.996Z,5.00
2024-02-14T03:08:06.246Z,5.00
2024-02-14T03:10:33.712Z,2.17
2024-02-14T03:13:00.525Z,4.90
2024-02-14T03:15:27.501Z,2.20
2024-02-14T03:17:54.743Z,7.18
2024-02-14T03:20:22.126Z,2.85
2024-02-14T03:22:49.786Z,4.72
2024-02-14T03:25:21.424Z,4.40
2024-02-14T03:27:52.777Z,5.38
2024-02-14T03:30:21.366Z,2.30
2024-02-14T03:32:48.832Z,3.47
2024-02-14T03:35:16.132Z,3.78
2024-02-14T03:37:45.387Z,3.50
2024-02-14T03:40:12.976Z,2.70
2024-02-14T03:42:43.378Z,3.85
2024-02-14T03:45:10.945Z,5.50
2024-02-14T03:47:41.848Z,6.07
2024-02-14T03:50:12.331Z,5.72
2024-02-14T03:52:39.519Z,4.18
2024-02-14T03:55:07.518Z,3.67
2024-02-14T03:57:36.818Z,6.32
2024-02-14T04:00:05.208Z,6.15
2024-02-14T04:02:33.297Z,4.50
2024-02-14T04:05:00.855Z,2.92
2024-02-14T04:07:27.864Z,3.60
2024-02-14T04:09:55.071Z,6.70
2024-02-14T04:12:26.654Z,5.50
2024-02-14T04:14:53.730Z,5.20
2024-02-14T04:17:20.597Z,4.18
2024-02-14T04:19:47.458Z,6.57
2024-02-14T04:22:14.583Z,6.25
2024-02-14T04:24:41.441Z,8.57
2024-02-14T04:27:08.345Z,3.20
2024-02-14T04:29:36.468Z,5.25
2024-02-14T04:32:04.110Z,6.25
2024-02-14T04:34:32.294Z,4.07
2024-02-14T04:36:59.518Z,5.25
2024-02-14T04:39:26.408Z,5.05
2024-02-14T04:42:01.384Z,4.07
2024-02-14T04:44:30.778Z,4.30
2024-02-14T04:46:59.489Z,2.17
2024-02-14T04:49:27.130Z,5.95
2024-02-14T04:51:54.232Z,5.68
2024-02-14T04:54:21.164Z,5.65
2024-02-14T04:56:52.573Z,4.72
2024-02-14T04:59:22.713Z,4.93
2024-02-14T05:01:49.588Z,5.70
2024-02-14T05:04:18.000Z,8.80
2024-02-14T05:06:45.369Z,6.45
2024-02-14T05:09:12.595Z,9.82
2024-02-14T05:11:39.485Z,4.70
2024-02-14T05:14:07.258Z,3.00
2024-02-14T05:16:34.326Z,3.38
2024-02-14T05:19:02.680Z,6.47
2024-02-14T05:21:29.659Z,9.95
2024-02-14T05:23:56.801Z,5.75
2024-02-14T05:26:23.827Z,3.65
2024-02-14T05:28:50.715Z,5.05
2024-02-14T05:31:17.857Z,6.45
2024-02-14T05:33:45.322Z,5.28
2024-02-14T05:36:12.304Z,5.55
2024-02-14T05:38:39.271Z,3.03
2024-02-14T05:41:09.134Z,3.22
2024-02-14T05:43:36.264Z,4.78
2024-02-14T05:46:03.580Z,4.50
2024-02-14T05:48:30.676Z,4.00
2024-02-14T05:50:57.796Z,3.53
2024-02-14T05:53:24.733Z,6.05
2024-02-14T05:55:51.828Z,3.75
2024-02-14T05:58:18.791Z,6.40
2024-02-14T06:00:46.058Z,4.68
2024-02-14T06:03:13.032Z,5.18
2024-02-14T06:05:40.216Z,3.15
2024-02-14T06:08:07.438Z,2.10
2024-02-14T06:10:35.974Z,4.63
2024-02-14T06:13:03.094Z,4.55
2024-02-14T06:15:30.147Z,3.42
2024-02-14T06:17:57.370Z,3.83
2024-02-14T06:20:27.543Z,5.32
2024-02-14T06:23:02.027Z,3.10
2024-02-14T06:25:32.686Z,4.53
2024-02-14T06:27:59.756Z,3.35
2024-02-14T06:30:28.758Z,3.53
2024-02-14T06:33:02.862Z,3.70
2024-02-14T06:35:31.467Z,2.60
2024-02-14T06:38:04.086Z,2.08
2024-02-14T06:40:32.209Z,4.78
2024-02-14T06:43:01.956Z,4.47
2024-02-14T06:45:29.449Z,3.92
2024-02-14T06:47:57.151Z,4.88
2024-02-14T06:50:26.885Z,3.20
2024-02-14T06:52:54.345Z,5.30
2024-02-14T06:55:21.668Z,4.60
2024-02-14T06:57:48.853Z,6.10
2024-02-14T07:00:16.359Z,3.38
2024-02-14T07:02:44.889Z,3.83
2024-02-14T07:05:14.496Z,2.92
2024-02-14T07:07:42.416Z,5.75
2024-02-14T07:10:10.053Z,2.10
2024-02-14T07:12:40.338Z,2.92
2024-02-14T07:15:08.951Z,3.83
2024-02-14T07:17:36.054Z,3.20
2024-02-14T07:20:03.858Z,3.88
2024-02-14T07:22:32.059Z,3.60
2024-02-14T07:24:59.369Z,2.03
2024-02-14T07:27:26.530Z,1.92
2024-02-14T07:29:53.852Z,1.88
2024-02-14T07:32:21.619Z,1.92
2024-02-14T07:34:49.197Z,3.95
2024-02-14T07:37:21.023Z,2.03
2024-02-14T07:39:49.258Z,1.75
2024-02-14T07:42:16.250Z,3.03
2024-02-14T07:44:44.366Z,2.80
2024-02-14T07:47:11.506Z,2.05
2024-02-14T07:49:38.530Z,1.02
2024-02-14T07:52:06.160Z,0.73
2024-02-14T07:54:33.253Z,2.15
2024-02-14T07:57:00.292Z,1.42
2024-02-14T07:59:29.093Z,3.47
2024-02-14T08:01:59.052Z,0.70
2024-02-14T08:04:26.379Z,4.65
2024-02-14T08:06:53.612Z,2.90
2024-02-14T08:09:20.759Z,2.15
2024-02-14T08:11:47.833Z,2.63
2024-02-14T08:14:14.763Z,3.00
2024-02-14T08:16:41.992Z,2.88
2024-02-14T08:19:09.124Z,5.13
2024-02-14T08:21:37.389Z,2.65
2024-02-14T08:24:04.710Z,3.08
2024-02-14T08:26:33.334Z,5.50
2024-02-14T08:29:00.227Z,2.30
2024-02-14T08:31:27.382Z,1.23
2024-02-14T08:33:55.745Z,2.22
2024-02-14T08:36:23.163Z,1.15
2024-02-14T08:38:50.464Z,1.98
2024-02-14T08:41:19.850Z,1.00
2024-02-14T08:43:47.932Z,1.05
2024-02-14T08:46:15.578Z,1.90
2024-02-14T08:48:48.755Z,2.55
2024-02-14T08:51:21.807Z,0.85
2024-02-14T08:53:50.236Z,2.33
2024-02-14T08:56:17.424Z,0.80
2024-02-14T08:58:45.669Z,1.85
2024-02-14T09:01:15.774Z,3.00
2024-02-14T09:03:50.875Z,1.47
2024-02-14T09:06:22.362Z,0.77
2024-02-14T09:08:52.273Z,1.80
2024-02-14T09:11:19.996Z,2.25
2024-02-14T09:13:49.324Z,1.20
2024-02-14T09:16:19.296Z,1.02
2024-02-14T09:18:49.644Z,1.88
2024-02-14T09:21:21.201Z,2.05
2024-02-14T09:23:49.244Z,0.70
2024-02-14T09:26:17.899Z,0.80
2024-02-14T09:28:45.599Z,2.28
2024-02-14T09:31:13.817Z,3.17
2024-02-14T09:33:42.153Z,1.58
2024-02-14T09:36:09.733Z,3.10
2024-02-14T09:38:37.067Z,3.55
2024-02-14T09:41:19.364Z,1.00
2024-02-14T09:43:46.986Z,1.50
2024-02-14T09:46:16.319Z,0.77
2024-02-14T09:48:46.945Z,0.80
2024-02-14T09:51:15.379Z,1.00
2024-02-14T09:53:44.635Z,0.80
2024-02-14T09:56:13.388Z,2.35
2024-02-14T09:58:42.547Z,0.85
2024-02-14T10:01:09.468Z,1.15
2024-02-14T10:03:37.494Z,1.90
2024-02-14T10:06:05.992Z,1.15
2024-02-14T10:08:34.011Z,1.60
2024-02-14T10:11:01.088Z,1.27
2024-02-14T10:13:30.142Z,1.08
2024-02-14T10:15:57.737Z,0.93
2024-02-14T10:18:25.228Z,2.15
2024-02-14T10:20:56.870Z,1.55
2024-02-14T10:23:24.097Z,1.50
2024-02-14T10:25:54.055Z,2.38
2024-02-14T10:28:29.784Z,1.10
2024-02-14T10:31:00.775Z,1.13
2024-02-14T10:33:31.823Z,0.60
2024-02-14T10:36:02.144Z,0.90
2024-02-14T10:38:36.533Z,2.72
2024-02-14T10:41:05.301Z,1.05
2024-02-14T10:43:33.425Z,1.38
2024-02-14T10:46:10.875Z,0.70
2024-02-14T10:48:40.546Z,1.20
2024-02-14T10:51:11.926Z,1.08
2024-02-14T10:53:47.025Z,0.70
2024-02-14T10:56:22.714Z,0.70
2024-02-14T10:58:50.609Z,0.80
2024-02-14T11:01:18.417Z,2.28
2024-02-14T11:03:46.276Z,1.35
2024-02-14T11:06:18.486Z,0.70
2024-02-14T11:09:18.234Z,0.60
2024-02-14T11:11:46.284Z,0.90
2024-02-14T11:14:17.493Z,2.10
2024-02-14T11:16:47.104Z,1.05
2024-02-14T11:19:15.610Z,0.70
2024-02-14T11:21:44.568Z,0.77
2024-02-14T11:24:12.723Z,1.98
2024-02-14T11:26:52.977Z,0.60
2024-02-14T11:29:25.079Z,0.90
2024-02-14T11:32:03.694Z,0.70
2024-02-14T11:34:38.057Z,0.90
2024-02-14T11:37:06.836Z,0.70
2024-02-14T11:39:36.981Z,1.13
2024-02-14T11:42:04.658Z,2.45
2024-02-14T11:44:33.959Z,2.20
2024-02-14T11:47:01.961Z,0.82
2024-02-14T11:49:29.196Z,0.60
2024-02-14T11:51:56.115Z,2.97
2024-02-14T11:54:24.239Z,0.70
2024-02-14T11:56:51.493Z,0.60
2024-02-14T11:59:21.193Z,1.48
2024-02-14T12:01:50.101Z,1.45
2024-02-14T12:04:17.765Z,0.80
2024-02-14T12:06:45.594Z,0.60
2024-02-14T12:09:14.210Z,2.22
2024-02-14T12:11:47.628Z,2.78
2024-02-14T12:14:15.549Z,0.68
2024-02-14T12:16:45.482Z,0.80
2024-02-14T12:19:19.636Z,0.75
2024-02-14T12:21:46.756Z,0.70
2024-02-14T12:24:16.071Z,1.85
2024-02-14T12:26:44.006Z,0.60
2024-02-14T12:29:15.242Z,2.00
2024-02-14T12:31:44.836Z,0.98
2024-02-14T12:34:13.898Z,0.60
2024-02-14T12:36:41.605Z,1.38
2024-02-14T12:39:14.369Z,0.80
2024-02-14T12:41:42.148Z,1.02
2024-02-14T12:44:09.395Z,1.27
2024-02-14T12:46:40.078Z,0.60
2024-02-14T12:49:07.814Z,1.17
2024-02-14T12:51:37.345Z,1.25
2024-02-14T12:54:05.304Z,1.45
2024-02-14T12:56:33.490Z,0.95
2024-02-14T12:59:01.358Z,1.13
2024-02-14T13:01:28.600Z,0.60
2024-02-14T13:03:55.796Z,0.68
2024-02-14T13:06:23.933Z,0.60
2024-02-14T13:08:50.936Z,2.03
2024-02-14T13:11:20.351Z,2.00
2024-02-14T13:13:47.746Z,1.20
2024-02-14T13:16:14.938Z,2.35
2024-02-14T13:18:42.684Z,1.27
2024-02-14T13:21:09.941Z,1.65
2024-02-14T13:23:37.147Z,0.70
2024-02-14T13:26:05.107Z,2.42
2024-02-14T13:28:33.531Z,0.70
2024-02-14T13:31:00.807Z,0.80
2024-02-14T13:33:28.381Z,2.22
2024-02-14T13:35:55.915Z,0.88
2024-02-14T13:38:23.055Z,0.70
2024-02-14T13:40:50.341Z,1.55
2024-02-14T13:43:19.029Z,0.80
2024-02-14T13:45:47.906Z,1.33
2024-02-14T13:48:15.079Z,0.80
2024-02-14T13:50:43.845Z,0.77
2024-02-14T13:53:11.380Z,0.90
2024-02-14T13:55:39.130Z,0.70
2024-02-14T13:58:06.136Z,2.00
2024-02-14T14:00:35.014Z,1.63
2024-02-14T14:03:02.219Z,0.60
2024-02-14T14:05:29.424Z,0.70
2024-02-14T14:07:59.590Z,1.77
2024-02-14T14:10:29.640Z,2.25
2024-02-14T14:12:57.932Z,0.50
2024-02-14T14:15:25.327Z,1.35
2024-02-14T14:17:53.926Z,0.60
2024-02-14T14:20:22.560Z,0.80
2024-02-14T14:22:49.935Z,1.83
2024-02-14T14:25:17.187Z,0.93
2024-02-14T14:27:44.841Z,0.68
2024-02-14T14:30:13.250Z,0.70
2024-02-14T14:32:44.190Z,0.60
2024-02-14T14:35:14.982Z,0.60
2024-02-14T14:37:45.206Z,1.02
2024-02-14T14:40:12.387Z,1.40
2024-02-14T14:42:39.840Z,0.60
2024-02-14T14:45:07.442Z,0.60
2024-02-14T14:47:35.250Z,1.00
2024-02-14T14:50:03.285Z,0.50
2024-02-14T14:52:30.373Z,1.80
2024-02-14T14:54:58.273Z,1.27
2024-02-14T14:57:27.207Z,1.45
2024-02-14T14:59:58.527Z,2.13
2024-02-14T15:02:25.444Z,0.60
2024-02-14T15:04:52.633Z,1.35
2024-02-14T15:07:21.484Z,0.70
2024-02-14T15:09:48.821Z,0.50
2024-02-14T15:12:19.834Z,0.70
2024-02-14T15:14:47.069Z,1.00
2024-02-14T15:17:15.736Z,0.80
2024-02-14T15:19:42.637Z,0.90
2024-02-14T15:22:10.058Z,1.33
2024-02-14T15:24:39.366Z,1.63
2024-02-14T15:27:07.371Z,0.60
2024-02-14T15:29:53.453Z,1.75
2024-02-14T15:32:39.486Z,1.15
2024-02-14T15:35:07.736Z,0.50
2024-02-14T15:37:36.429Z,0.50
2024-02-14T15:40:04.020Z,1.00
2024-02-14T15:42:31.230Z,1.25
2024-02-14T15:44:58.783Z,1.02
2024-02-14T15:47:26.234Z,0.70
2024-02-14T15:49:54.259Z,1.17
2024-02-14T15:52:21.749Z,0.55
2024-02-14T15:54:49.108Z,0.50
2024-02-14T15:57:16.162Z,1.02
2024-02-14T15:59:43.458Z,1.02
2024-02-14T16:02:11.358Z,0.60
2024-02-14T16:04:38.759Z,1.48
2024-02-14T16:07:06.011Z,1.25
2024-02-14T16:09:32.933Z,0.90
2024-02-14T16:11:59.955Z,1.52
2024-02-14T16:14:30.674Z,0.80
2024-02-14T16:16:58.295Z,1.05
2024-02-14T16:19:25.354Z,1.48
2024-02-14T16:22:02.322Z,0.55
2024-02-14T16:24:39.352Z,1.63
2024-02-14T16:27:07.255Z,0.50
2024-02-14T16:29:34.492Z,0.85
2024-02-14T16:32:01.401Z,1.05
2024-02-14T16:34:30.104Z,3.58
2024-02-14T16:36:58.322Z,0.70
2024-02-14T16:39:35.541Z,1.42
2024-02-14T16:42:09.790Z,2.45
2024-02-14T16:44:38.616Z,1.85
2024-02-14T16:47:06.351Z,0.75
2024-02-14T16:49:38.827Z,1.48
2024-02-14T16:52:07.387Z,2.40
2024-02-14T16:54:35.204Z,2.40
2024-02-14T16:57:15.867Z,1.23
2024-02-14T16:59:47.286Z,1.02
2024-02-14T17:02:15.273Z,1.20
2024-02-14T17:04:43.238Z,0.65
2024-02-14T17:07:12.761Z,0.70
2024-02-14T17:09:40.622Z,1.25
2024-02-14T17:12:10.031Z,1.67
2024-02-14T17:14:41.541Z,0.68
2024-02-14T17:17:11.697Z,1.00
2024-02-14T17:19:38.994Z,0.60
2024-02-14T17:22:17.760Z,3.10
2024-02-14T17:24:56.780Z,1.40
2024-02-14T17:27:24.347Z,1.05
2024-02-14T17:29:51.387Z,1.02
2024-02-14T17:32:28.360Z,1.42
2024-02-14T17:35:03.249Z,1.42
2024-02-14T17:37:30.383Z,2.20
2024-02-14T17:39:57.507Z,0.60
2024-02-14T17:42:24.593Z,1.00
2024-02-14T17:44:51.629Z,4.03
2024-02-14T17:47:19.536Z,3.30
2024-02-14T17:49:48.206Z,2.17
2024-02-14T17:52:21.891Z,1.00
2024-02-14T17:54:49.021Z,0.88
2024-02-14T17:57:17.578Z,1.45
2024-02-14T17:59:46.032Z,1.88
2024-02-14T18:02:13.080Z,0.63
2024-02-14T18:04:40.161Z,1.05
2024-02-14T18:07:07.352Z,3.10
2024-02-14T18:09:34.683Z,1.65
2024-02-14T18:12:01.679Z,2.15
2024-02-14T18:14:29.614Z,0.50
2024-02-14T18:16:56.826Z,0.63
2024-02-14T18:19:24.584Z,1.23
2024-02-14T18:21:51.680Z,2.33
2024-02-14T18:24:19.326Z,2.08
2024-02-14T18:26:46.294Z,2.40
2024-02-14T18:29:13.971Z,1.75
2024-02-14T18:31:42.327Z,1.63
2024-02-14T18:34:09.428Z,0.77
2024-02-14T18:36:36.707Z,1.88
2024-02-14T18:39:03.934Z,3.05
2024-02-14T18:41:31.777Z,1.98
2024-02-14T18:44:04.493Z,1.92
2024-02-14T18:46:31.847Z,1.55
2024-02-14T18:48:59.166Z,1.38
2024-02-14T18:51:26.429Z,1.48
2024-02-14T18:53:53.329Z,3.40
2024-02-14T18:56:27.023Z,1.67
2024-02-14T18:58:54.129Z,1.73
2024-02-14T19:01:26.702Z,2.00
2024-02-14T19:03:57.721Z,1.40
2024-02-14T19:06:25.114Z,2.45
2024-02-14T19:08:52.919Z,2.42
2024-02-14T19:11:22.582Z,2.72
2024-02-14T19:13:51.432Z,1.27
2024-02-14T19:16:27.586Z,0.77
2024-02-14T19:18:56.443Z,2.95
2024-02-14T19:21:24.052Z,1.17
2024-02-14T19:23:51.212Z,1.45
2024-02-14T19:26:20.437Z,1.38
2024-02-14T19:28:48.631Z,3.08
2024-02-14T19:31:16.148Z,1.40
2024-02-14T19:33:44.418Z,1.38
2024-02-14T19:36:11.458Z,0.98
2024-02-14T19:38:38.709Z,4.95
2024-02-14T19:41:06.008Z,0.98
2024-02-14T19:43:39.207Z,1.58
2024-02-14T19:46:07.511Z,4.28
2024-02-14T19:48:36.512Z,1.48
2024-02-14T19:51:04.994Z,2.75
2024-02-14T19:53:32.867Z,1.73
2024-02-14T19:56:00.605Z,1.67
2024-02-14T19:58:27.695Z,2.97
2024-02-14T20:00:54.897Z,1.08
2024-02-14T20:03:22.500Z,3.08
2024-02-14T20:05:50.223Z,1.92
2024-02-14T20:08:19.002Z,2.67
2024-02-14T20:10:46.752Z,1.30
2024-02-14T20:13:14.697Z,2.47
2024-02-14T20:15:41.801Z,1.45
2024-02-14T20:18:10.536Z,1.23
2024-02-14T20:20:38.886Z,3.70
2024-02-14T20:23:06.044Z,3.42
2024-02-14T20:25:33.001Z,1.83
2024-02-14T20:27:59.981Z,2.05
2024-02-14T20:30:30.221Z,3.25
2024-02-14T20:32:58.668Z,4.68
2024-02-14T20:35:25.815Z,1.90
2024-02-14T20:37:56.339Z,3.20
2024-02-14T20:40:24.359Z,1.70
2024-02-14T20:42:51.490Z,2.35
2024-02-14T20:45:19.577Z,1.38
2024-02-14T20:47:49.102Z,3.53
2024-02-14T20:50:16.152Z,2.65
2024-02-14T20:52:43.666Z,1.77
2024-02-14T20:55:10.506Z,1.13
2024-02-14T20:57:37.876Z,2.70
2024-02-14T21:00:06.179Z,2.03
2024-02-14T21:02:34.539Z,2.85
2024-02-14T21:05:02.991Z,1.80
2024-02-14T21:07:30.226Z,2.25
2024-02-14T21:09:57.558Z,1.88
2024-02-14T21:12:24.465Z,5.90
2024-02-14T21:14:52.778Z,3.03
2024-02-14T21:17:19.736Z,1.10
2024-02-14T21:19:49.253Z,1.33
2024-02-14T21:22:17.593Z,1.55
2024-02-14T21:24:44.466Z,3.55
2024-02-14T21:27:11.725Z,2.67
2024-02-14T21:29:39.022Z,3.20
2024-02-14T21:32:15.846Z,1.73
2024-02-14T21:34:42.966Z,1.02
2024-02-14T21:37:09.823Z,1.92
2024-02-14T21:39:37.162Z,2.22
2024-02-14T21:42:04.253Z,2.97
2024-02-14T21:44:32.405Z,1.52
2024-02-14T21:46:59.992Z,0.90
2024-02-14T21:49:27.438Z,1.92
2024-02-14T21:51:54.526Z,1.95
2024-02-14T21:54:21.425Z,1.13
2024-02-14T21:56:48.341Z,2.15
2024-02-14T21:59:15.276Z,2.70
2024-02-14T22:01:45.363Z,2.08
2024-02-14T22:04:14.015Z,2.15
2024-02-14T22:06:41.172Z,1.35
2024-02-14T22:09:09.231Z,2.78
2024-02-14T22:11:39.071Z,2.65
2024-02-14T22:14:05.958Z,1.67
2024-02-14T22:16:33.243Z,1.33
2024-02-14T22:19:01.596Z,1.77
2024-02-14T22:21:29.155Z,1.50
2024-02-14T22:23:56.528Z,2.72
2024-02-14T22:26:23.664Z,2.20
2024-02-14T22:28:53.360Z,0.90
2024-02-14T22:31:20.243Z,2.05
2024-02-14T22:33:47.551Z,3.35
2024-02-14T22:36:14.661Z,1.48
2024-02-14T22:38:41.920Z,1.48
2024-02-14T22:41:09.042Z,1.20
2024-02-14T22:43:36.374Z,1.88
2024-02-14T22:46:03.516Z,1.35
2024-02-14T22:48:31.421Z,0.65
2024-02-14T22:50:59.185Z,2.17
2024-02-14T22:53:34.055Z,1.00
2024-02-14T22:56:01.781Z,0.95
2024-02-14T22:58:29.024Z,1.52
2024-02-14T23:00:56.216Z,1.52
2024-02-14T23:03:25.876Z,1.65
2024-02-14T23:05:56.604Z,0.88
2024-02-14T23:08:24.289Z,1.85
2024-02-14T23:10:51.369Z,1.05
2024-02-14T23:13:19.536Z,3.10
2024-02-14T23:15:48.158Z,2.25
2024-02-14T23:18:15.475Z,1.85
2024-02-14T23:20:44.009Z,3.03
2024-02-14T23:23:11.010Z,0.65
2024-02-14T23:25:38.662Z,2.63
2024-02-14T23:28:06.296Z,0.60
2024-02-14T23:30:36.135Z,1.55
2024-02-14T23:33:03.740Z,1.77
2024-02-14T23:35:30.772Z,0.60
2024-02-14T23:37:57.953Z,0.80
2024-02-14T23:40:24.817Z,0.60
2024-02-14T23:42:52.367Z,1.33
